sensor_id;sensor_type;location;lat;lon;timestamp;temperature;humidity
4279;DHT22;2153;47.744;10.580;2023-07-22T00:02:14;14.00;99.90
4279;DHT22;2153;47.744;10.580;2023-07-22T00:04:40;13.90;99.90
4279;DHT22;2153;47.744;10.580;2023-07-22T00:07:07;14.00;99.90
4279;DHT22;2153;47.744;10.580;2023-07-22T00:09:35;13.90;99.90
4279;DHT22;2153;47.744;10.580;2023-07-22T00:12:04;13.90;99.90
4279;DHT22;2153;47.744;10.580;2023-07-22T00:14:31;13.90;99.90
4279;DHT22;2153;47.744;10.580;2023-07-22T00:16:58;13.80;99.90
4279;DHT22;2153;47.744;10.580;2023-07-22T00:19:24;13.80;99.90
4279;DHT22;2153;47.744;10.580;2023-07-22T00:21:51;13.90;99.90
4279;DHT22;2153;47.744;10.580;2023-07-22T00:24:18;13.90;99.90
4279;DHT22;2153;47.744;10.580;2023-07-22T00:26:46;13.80;99.90
4279;DHT22;2153;47.744;10.580;2023-07-22T00:29:15;13.80;99.90
4279;DHT22;2153;47.744;10.580;2023-07-22T00:31:41;13.80;99.90
4279;DHT22;2153;47.744;10.580;2023-07-22T00:34:08;13.80;99.90
4279;DHT22;2153;47.744;10.580;2023-07-22T00:36:36;13.80;99.90
4279;DHT22;2153;47.744;10.580;2023-07-22T00:39:03;13.80;99.90
4279;DHT22;2153;47.744;10.580;2023-07-22T00:41:30;13.80;99.90
4279;DHT22;2153;47.744;10.580;2023-07-22T00:43:58;13.80;99.90
4279;DHT22;2153;47.744;10.580;2023-07-22T00:46:24;13.80;99.90
4279;DHT22;2153;47.744;10.580;2023-07-22T00:48:52;13.80;99.90
4279;DHT22;2153;47.744;10.580;2023-07-22T00:51:19;13.80;99.90
4279;DHT22;2153;47.744;10.580;2023-07-22T00:53:47;13.80;99.90
4279;DHT22;2153;47.744;10.580;2023-07-22T00:56:14;13.80;99.90
4279;DHT22;2153;47.744;10.580;2023-07-22T00:58:41;13.70;99.90
4279;DHT22;2153;47.744;10.580;2023-07-22T01:01:09;13.70;99.90
4279;DHT22;2153;47.744;10.580;2023-07-22T01:03:36;13.70;99.90
4279;DHT22;2153;47.744;10.580;2023-07-22T01:06:03;13.70;99.90
4279;DHT22;2153;47.744;10.580;2023-07-22T01:08:29;13.70;99.90
4279;DHT22;2153;47.744;10.580;2023-07-22T01:10:56;13.70;99.90
4279;DHT22;2153;47.744;10.580;2023-07-22T01:13:23;13.70;99.90
4279;DHT22;2153;47.744;10.580;2023-07-22T01:15:50;13.70;99.90
4279;DHT22;2153;47.744;10.580;2023-07-22T01:18:18;13.70;99.90
4279;DHT22;2153;47.744;10.580;2023-07-22T01:20:46;13.60;99.90
4279;DHT22;2153;47.744;10.580;2023-07-22T01:23:14;13.60;99.90
4279;DHT22;2153;47.744;10.580;2023-07-22T01:25:42;13.60;99.90
4279;DHT22;2153;47.744;10.580;2023-07-22T01:28:09;13.60;99.90
4279;DHT22;2153;47.744;10.580;2023-07-22T01:30:37;13.60;99.90
4279;DHT22;2153;47.744;10.580;2023-07-22T01:33:03;13.60;99.90
4279;DHT22;2153;47.744;10.580;2023-07-22T01:35:30;13.60;99.90
4279;DHT22;2153;47.744;10.580;2023-07-22T01:37:57;13.60;99.90
4279;DHT22;2153;47.744;10.580;2023-07-22T01:40:25;13.60;99.90
4279;DHT22;2153;47.744;10.580;2023-07-22T01:42:54;13.60;99.90
4279;DHT22;2153;47.744;10.580;2023-07-22T01:45:20;13.60;99.90
4279;DHT22;2153;47.744;10.580;2023-07-22T01:47:47;13.60;99.90
4279;DHT22;2153;47.744;10.580;2023-07-22T01:50:14;13.60;99.90
4279;DHT22;2153;47.744;10.580;2023-07-22T01:52:41;13.60;99.90
4279;DHT22;2153;47.744;10.580;2023-07-22T01:55:08;13.60;99.90
4279;DHT22;2153;47.744;10.580;2023-07-22T01:57:37;13.60;99.90
4279;DHT22;2153;47.744;10.580;2023-07-22T02:00:06;13.60;99.90
4279;DHT22;2153;47.744;10.580;2023-07-22T02:02:33;13.60;99.90
4279;DHT22;2153;47.744;10.580;2023-07-22T02:05:00;13.50;99.90
4279;DHT22;2153;47.744;10.580;2023-07-22T02:07:27;13.50;99.90
4279;DHT22;2153;47.744;10.580;2023-07-22T02:09:54;13.50;99.90
4279;DHT22;2153;47.744;10.580;2023-07-22T02:12:21;13.40;99.90
4279;DHT22;2153;47.744;10.580;2023-07-22T02:14:49;13.40;99.90
4279;DHT22;2153;47.744;10.580;2023-07-22T02:17:16;13.30;99.90
4279;DHT22;2153;47.744;10.580;2023-07-22T02:19:42;13.20;99.90
4279;DHT22;2153;47.744;10.580;2023-07-22T02:22:09;13.20;99.90
4279;DHT22;2153;47.744;10.580;2023-07-22T02:24:36;13.20;99.90
4279;DHT22;2153;47.744;10.580;2023-07-22T02:27:03;13.10;99.90
4279;DHT22;2153;47.744;10.580;2023-07-22T02:29:31;13.10;99.90
4279;DHT22;2153;47.744;10.580;2023-07-22T02:31:59;13.20;99.90
4279;DHT22;2153;47.744;10.580;2023-07-22T02:34:26;13.20;99.90
4279;DHT22;2153;47.744;10.580;2023-07-22T02:36:53;13.20;99.90
4279;DHT22;2153;47.744;10.580;2023-07-22T02:39:20;13.20;99.90
4279;DHT22;2153;47.744;10.580;2023-07-22T02:41:48;13.10;99.90
4279;DHT22;2153;47.744;10.580;2023-07-22T02:44:15;13.10;99.90
4279;DHT22;2153;47.744;10.580;2023-07-22T02:46:41;13.10;99.90
4279;DHT22;2153;47.744;10.580;2023-07-22T02:49:09;13.00;99.90
4279;DHT22;2153;47.744;10.580;2023-07-22T02:51:36;13.00;99.90
4279;DHT22;2153;47.744;10.580;2023-07-22T02:54:03;12.90;99.90
4279;DHT22;2153;47.744;10.580;2023-07-22T02:56:30;12.90;99.90
4279;DHT22;2153;47.744;10.580;2023-07-22T02:58:56;12.90;99.90
4279;DHT22;2153;47.744;10.580;2023-07-22T03:01:23;12.90;99.90
4279;DHT22;2153;47.744;10.580;2023-07-22T03:03:51;12.90;99.90
4279;DHT22;2153;47.744;10.580;2023-07-22T03:06:19;12.80;99.90
4279;DHT22;2153;47.744;10.580;2023-07-22T03:08:46;12.80;99.90
4279;DHT22;2153;47.744;10.580;2023-07-22T03:11:13;12.70;99.90
4279;DHT22;2153;47.744;10.580;2023-07-22T03:13:40;12.70;99.90
4279;DHT22;2153;47.744;10.580;2023-07-22T03:16:08;12.70;99.90
4279;DHT22;2153;47.744;10.580;2023-07-22T03:18:34;12.70;99.90
4279;DHT22;2153;47.744;10.580;2023-07-22T03:21:01;12.70;99.90
4279;DHT22;2153;47.744;10.580;2023-07-22T03:23:29;12.70;99.90
4279;DHT22;2153;47.744;10.580;2023-07-22T03:25:56;12.70;99.90
4279;DHT22;2153;47.744;10.580;2023-07-22T03:28:23;12.60;99.90
4279;DHT22;2153;47.744;10.580;2023-07-22T03:30:51;12.60;99.90
4279;DHT22;2153;47.744;10.580;2023-07-22T03:33:18;12.60;99.90
4279;DHT22;2153;47.744;10.580;2023-07-22T03:35:45;12.40;99.90
4279;DHT22;2153;47.744;10.580;2023-07-22T03:38:12;12.30;99.90
4279;DHT22;2153;47.744;10.580;2023-07-22T03:40:40;12.30;99.90
4279;DHT22;2153;47.744;10.580;2023-07-22T03:43:07;12.30;99.90
4279;DHT22;2153;47.744;10.580;2023-07-22T03:45:34;12.20;99.90
4279;DHT22;2153;47.744;10.580;2023-07-22T03:48:01;12.20;99.90
4279;DHT22;2153;47.744;10.580;2023-07-22T03:50:28;12.20;99.90
4279;DHT22;2153;47.744;10.580;2023-07-22T03:52:55;12.20;99.90
4279;DHT22;2153;47.744;10.580;2023-07-22T03:55:21;12.20;99.90
4279;DHT22;2153;47.744;10.580;2023-07-22T03:57:49;12.20;99.90
4279;DHT22;2153;47.744;10.580;2023-07-22T04:00:16;12.00;99.90
4279;DHT22;2153;47.744;10.580;2023-07-22T04:02:43;12.00;99.90
4279;DHT22;2153;47.744;10.580;2023-07-22T04:05:10;12.00;99.90
4279;DHT22;2153;47.744;10.580;2023-07-22T04:07:37;12.10;99.90
4279;DHT22;2153;47.744;10.580;2023-07-22T04:10:05;12.10;99.90
4279;DHT22;2153;47.744;10.580;2023-07-22T04:12:32;12.10;99.90
4279;DHT22;2153;47.744;10.580;2023-07-22T04:15:00;12.20;99.90
4279;DHT22;2153;47.744;10.580;2023-07-22T04:17:26;12.30;99.90
4279;DHT22;2153;47.744;10.580;2023-07-22T04:19:53;12.40;99.90
4279;DHT22;2153;47.744;10.580;2023-07-22T04:22:20;12.50;99.90
4279;DHT22;2153;47.744;10.580;2023-07-22T04:24:47;12.60;99.90
4279;DHT22;2153;47.744;10.580;2023-07-22T04:27:14;12.70;99.90
4279;DHT22;2153;47.744;10.580;2023-07-22T04:29:41;12.60;99.90
4279;DHT22;2153;47.744;10.580;2023-07-22T04:32:09;12.50;99.90
4279;DHT22;2153;47.744;10.580;2023-07-22T04:34:36;12.50;99.90
4279;DHT22;2153;47.744;10.580;2023-07-22T04:37:03;12.50;99.90
4279;DHT22;2153;47.744;10.580;2023-07-22T04:39:31;12.60;99.90
4279;DHT22;2153;47.744;10.580;2023-07-22T04:41:57;12.70;99.90
4279;DHT22;2153;47.744;10.580;2023-07-22T04:44:24;12.80;99.90
4279;DHT22;2153;47.744;10.580;2023-07-22T04:46:51;12.80;99.90
4279;DHT22;2153;47.744;10.580;2023-07-22T04:49:19;12.90;99.90
4279;DHT22;2153;47.744;10.580;2023-07-22T04:51:46;12.90;99.90
4279;DHT22;2153;47.744;10.580;2023-07-22T04:54:13;12.90;99.90
4279;DHT22;2153;47.744;10.580;2023-07-22T04:56:40;13.00;99.90
4279;DHT22;2153;47.744;10.580;2023-07-22T04:59:07;13.00;99.90
4279;DHT22;2153;47.744;10.580;2023-07-22T05:01:34;13.20;99.90
4279;DHT22;2153;47.744;10.580;2023-07-22T05:04:01;13.20;99.90
4279;DHT22;2153;47.744;10.580;2023-07-22T05:06:31;13.20;99.90
4279;DHT22;2153;47.744;10.580;2023-07-22T05:08:58;13.30;99.90
4279;DHT22;2153;47.744;10.580;2023-07-22T05:11:25;13.20;99.90
4279;DHT22;2153;47.744;10.580;2023-07-22T05:13:51;13.20;99.90
4279;DHT22;2153;47.744;10.580;2023-07-22T05:16:18;13.30;99.90
4279;DHT22;2153;47.744;10.580;2023-07-22T05:18:46;13.40;99.90
4279;DHT22;2153;47.744;10.580;2023-07-22T05:21:13;13.50;99.90
4279;DHT22;2153;47.744;10.580;2023-07-22T05:23:41;13.50;99.90
4279;DHT22;2153;47.744;10.580;2023-07-22T05:26:08;13.50;99.90
4279;DHT22;2153;47.744;10.580;2023-07-22T05:28:34;13.60;99.90
4279;DHT22;2153;47.744;10.580;2023-07-22T05:31:01;13.50;99.90
4279;DHT22;2153;47.744;10.580;2023-07-22T05:33:28;13.50;99.90
4279;DHT22;2153;47.744;10.580;2023-07-22T05:35:54;13.40;99.90
4279;DHT22;2153;47.744;10.580;2023-07-22T05:38:21;13.50;99.90
4279;DHT22;2153;47.744;10.580;2023-07-22T05:40:49;13.70;99.90
4279;DHT22;2153;47.744;10.580;2023-07-22T05:43:16;14.10;99.90
4279;DHT22;2153;47.744;10.580;2023-07-22T05:45:42;14.20;99.90
4279;DHT22;2153;47.744;10.580;2023-07-22T05:48:09;14.30;99.90
4279;DHT22;2153;47.744;10.580;2023-07-22T05:50:36;14.40;99.90
4279;DHT22;2153;47.744;10.580;2023-07-22T05:53:02;14.40;99.90
4279;DHT22;2153;47.744;10.580;2023-07-22T05:55:29;14.50;99.90
4279;DHT22;2153;47.744;10.580;2023-07-22T05:57:57;14.40;99.90
4279;DHT22;2153;47.744;10.580;2023-07-22T06:00:25;14.40;99.90
4279;DHT22;2153;47.744;10.580;2023-07-22T06:02:52;14.40;99.90
4279;DHT22;2153;47.744;10.580;2023-07-22T06:05:18;14.60;99.90
4279;DHT22;2153;47.744;10.580;2023-07-22T06:07:45;14.70;99.90
4279;DHT22;2153;47.744;10.580;2023-07-22T06:10:12;14.80;99.90
4279;DHT22;2153;47.744;10.580;2023-07-22T06:12:38;14.90;99.90
4279;DHT22;2153;47.744;10.580;2023-07-22T06:15:08;15.00;99.90
4279;DHT22;2153;47.744;10.580;2023-07-22T06:17:35;15.30;99.90
4279;DHT22;2153;47.744;10.580;2023-07-22T06:20:02;15.50;99.90
4279;DHT22;2153;47.744;10.580;2023-07-22T06:22:29;15.60;99.90
4279;DHT22;2153;47.744;10.580;2023-07-22T06:24:56;15.70;99.90
4279;DHT22;2153;47.744;10.580;2023-07-22T06:27:23;15.80;99.90
4279;DHT22;2153;47.744;10.580;2023-07-22T06:29:49;16.00;99.90
4279;DHT22;2153;47.744;10.580;2023-07-22T06:32:17;16.10;99.90
4279;DHT22;2153;47.744;10.580;2023-07-22T06:34:44;16.10;99.90
4279;DHT22;2153;47.744;10.580;2023-07-22T06:37:11;16.20;99.90
4279;DHT22;2153;47.744;10.580;2023-07-22T06:39:38;16.40;99.90
4279;DHT22;2153;47.744;10.580;2023-07-22T06:42:05;16.70;99.90
4279;DHT22;2153;47.744;10.580;2023-07-22T06:44:32;17.10;99.90
4279;DHT22;2153;47.744;10.580;2023-07-22T06:46:58;17.30;99.90
4279;DHT22;2153;47.744;10.580;2023-07-22T06:49:26;17.40;99.90
4279;DHT22;2153;47.744;10.580;2023-07-22T06:51:53;17.40;99.90
4279;DHT22;2153;47.744;10.580;2023-07-22T06:54:20;17.50;99.90
4279;DHT22;2153;47.744;10.580;2023-07-22T06:56:46;17.70;99.90
4279;DHT22;2153;47.744;10.580;2023-07-22T06:59:13;18.20;99.90
4279;DHT22;2153;47.744;10.580;2023-07-22T07:01:40;18.30;99.90
4279;DHT22;2153;47.744;10.580;2023-07-22T07:04:07;18.50;99.90
4279;DHT22;2153;47.744;10.580;2023-07-22T07:06:35;18.50;99.90
4279;DHT22;2153;47.744;10.580;2023-07-22T07:09:03;18.70;99.90
4279;DHT22;2153;47.744;10.580;2023-07-22T07:11:31;18.70;99.90
4279;DHT22;2153;47.744;10.580;2023-07-22T07:13:58;18.80;99.90
4279;DHT22;2153;47.744;10.580;2023-07-22T07:16:25;19.10;99.90
4279;DHT22;2153;47.744;10.580;2023-07-22T07:18:53;19.40;99.90
4279;DHT22;2153;47.744;10.580;2023-07-22T07:21:20;19.00;99.90
4279;DHT22;2153;47.744;10.580;2023-07-22T07:23:49;19.40;99.90
4279;DHT22;2153;47.744;10.580;2023-07-22T07:26:16;19.80;99.90
4279;DHT22;2153;47.744;10.580;2023-07-22T07:28:43;19.80;99.90
4279;DHT22;2153;47.744;10.580;2023-07-22T07:31:11;19.80;99.90
4279;DHT22;2153;47.744;10.580;2023-07-22T07:33:38;19.80;99.90
4279;DHT22;2153;47.744;10.580;2023-07-22T07:36:05;19.80;99.90
4279;DHT22;2153;47.744;10.580;2023-07-22T07:38:32;19.60;99.90
4279;DHT22;2153;47.744;10.580;2023-07-22T07:41:03;19.40;99.90
4279;DHT22;2153;47.744;10.580;2023-07-22T07:43:33;19.30;99.90
4279;DHT22;2153;47.744;10.580;2023-07-22T07:46:16;19.10;99.90
4279;DHT22;2153;47.744;10.580;2023-07-22T07:48:44;19.10;99.90
4279;DHT22;2153;47.744;10.580;2023-07-22T07:51:12;19.10;99.90
4279;DHT22;2153;47.744;10.580;2023-07-22T07:53:39;19.00;99.90
4279;DHT22;2153;47.744;10.580;2023-07-22T07:56:08;18.90;99.90
4279;DHT22;2153;47.744;10.580;2023-07-22T07:58:35;19.10;99.90
4279;DHT22;2153;47.744;10.580;2023-07-22T08:01:02;19.30;99.90
4279;DHT22;2153;47.744;10.580;2023-07-22T08:03:28;19.20;99.90
4279;DHT22;2153;47.744;10.580;2023-07-22T08:05:55;19.10;99.90
4279;DHT22;2153;47.744;10.580;2023-07-22T08:08:22;19.40;99.90
4279;DHT22;2153;47.744;10.580;2023-07-22T08:10:57;19.80;99.90
4279;DHT22;2153;47.744;10.580;2023-07-22T08:13:25;20.10;99.90
4279;DHT22;2153;47.744;10.580;2023-07-22T08:15:52;20.40;99.90
4279;DHT22;2153;47.744;10.580;2023-07-22T08:18:19;20.60;99.90
4279;DHT22;2153;47.744;10.580;2023-07-22T08:20:45;20.70;99.90
4279;DHT22;2153;47.744;10.580;2023-07-22T08:23:13;21.00;99.90
4279;DHT22;2153;47.744;10.580;2023-07-22T08:25:39;21.50;99.90
4279;DHT22;2153;47.744;10.580;2023-07-22T08:28:06;21.40;99.90
4279;DHT22;2153;47.744;10.580;2023-07-22T08:30:34;21.40;99.90
4279;DHT22;2153;47.744;10.580;2023-07-22T08:33:01;21.30;99.90
4279;DHT22;2153;47.744;10.580;2023-07-22T08:35:28;21.70;99.90
4279;DHT22;2153;47.744;10.580;2023-07-22T08:37:54;22.20;99.90
4279;DHT22;2153;47.744;10.580;2023-07-22T08:40:21;22.70;99.90
4279;DHT22;2153;47.744;10.580;2023-07-22T08:42:49;22.90;99.90
4279;DHT22;2153;47.744;10.580;2023-07-22T08:45:16;22.80;99.90
4279;DHT22;2153;47.744;10.580;2023-07-22T08:47:46;22.60;99.90
4279;DHT22;2153;47.744;10.580;2023-07-22T08:50:16;22.70;99.90
4279;DHT22;2153;47.744;10.580;2023-07-22T08:52:45;22.80;96.10
4279;DHT22;2153;47.744;10.580;2023-07-22T08:55:13;22.80;99.90
4279;DHT22;2153;47.744;10.580;2023-07-22T08:57:40;22.80;99.90
4279;DHT22;2153;47.744;10.580;2023-07-22T09:00:08;22.70;99.90
4279;DHT22;2153;47.744;10.580;2023-07-22T09:02:37;23.00;99.90
4279;DHT22;2153;47.744;10.580;2023-07-22T09:05:07;23.30;99.90
4279;DHT22;2153;47.744;10.580;2023-07-22T09:07:34;23.30;88.80
4279;DHT22;2153;47.744;10.580;2023-07-22T09:10:02;23.40;99.90
4279;DHT22;2153;47.744;10.580;2023-07-22T09:12:30;23.40;99.90
4279;DHT22;2153;47.744;10.580;2023-07-22T09:14:57;23.20;99.90
4279;DHT22;2153;47.744;10.580;2023-07-22T09:17:24;23.00;99.90
4279;DHT22;2153;47.744;10.580;2023-07-22T09:19:52;23.20;99.90
4279;DHT22;2153;47.744;10.580;2023-07-22T09:22:24;23.70;99.90
4279;DHT22;2153;47.744;10.580;2023-07-22T09:24:52;23.90;99.90
4279;DHT22;2153;47.744;10.580;2023-07-22T09:27:32;24.20;94.80
4279;DHT22;2153;47.744;10.580;2023-07-22T09:29:59;24.50;87.10
4279;DHT22;2153;47.744;10.580;2023-07-22T09:32:35;25.00;99.90
4279;DHT22;2153;47.744;10.580;2023-07-22T09:35:03;25.30;93.80
4279;DHT22;2153;47.744;10.580;2023-07-22T09:37:37;25.40;51.00
4279;DHT22;2153;47.744;10.580;2023-07-22T09:40:14;25.30;66.30
4279;DHT22;2153;47.744;10.580;2023-07-22T09:42:44;25.20;63.70
4279;DHT22;2153;47.744;10.580;2023-07-22T09:45:11;25.30;59.00
4279;DHT22;2153;47.744;10.580;2023-07-22T09:47:40;25.40;58.80
4279;DHT22;2153;47.744;10.580;2023-07-22T09:50:10;25.10;61.60
4279;DHT22;2153;47.744;10.580;2023-07-22T09:52:45;25.50;73.70
4279;DHT22;2153;47.744;10.580;2023-07-22T09:55:13;25.70;33.60
4279;DHT22;2153;47.744;10.580;2023-07-22T09:57:44;26.20;81.30
4279;DHT22;2153;47.744;10.580;2023-07-22T10:00:11;25.90;64.70
4279;DHT22;2153;47.744;10.580;2023-07-22T10:02:41;26.00;55.90
4279;DHT22;2153;47.744;10.580;2023-07-22T10:05:12;26.20;71.20
4279;DHT22;2153;47.744;10.580;2023-07-22T10:07:45;26.20;65.60
4279;DHT22;2153;47.744;10.580;2023-07-22T10:10:13;26.40;36.70
4279;DHT22;2153;47.744;10.580;2023-07-22T10:12:42;25.90;59.30
4279;DHT22;2153;47.744;10.580;2023-07-22T10:15:10;25.50;57.10
4279;DHT22;2153;47.744;10.580;2023-07-22T10:17:38;25.50;81.10
4279;DHT22;2153;47.744;10.580;2023-07-22T10:20:06;25.90;73.70
4279;DHT22;2153;47.744;10.580;2023-07-22T10:22:36;25.30;66.60
4279;DHT22;2153;47.744;10.580;2023-07-22T10:25:06;25.20;87.90
4279;DHT22;2153;47.744;10.580;2023-07-22T10:27:34;24.60;70.30
4279;DHT22;2153;47.744;10.580;2023-07-22T10:30:02;24.10;99.90
4279;DHT22;2153;47.744;10.580;2023-07-22T10:32:34;24.70;99.90
4279;DHT22;2153;47.744;10.580;2023-07-22T10:35:01;24.50;98.40
4279;DHT22;2153;47.744;10.580;2023-07-22T10:37:32;24.10;99.90
4279;DHT22;2153;47.744;10.580;2023-07-22T10:40:00;23.60;99.00
4279;DHT22;2153;47.744;10.580;2023-07-22T10:42:31;23.30;99.90
4279;DHT22;2153;47.744;10.580;2023-07-22T10:45:00;23.10;99.90
4279;DHT22;2153;47.744;10.580;2023-07-22T10:47:34;23.60;99.90
4279;DHT22;2153;47.744;10.580;2023-07-22T10:50:06;24.40;99.90
4279;DHT22;2153;47.744;10.580;2023-07-22T10:52:44;24.90;90.10
4279;DHT22;2153;47.744;10.580;2023-07-22T10:55:19;24.50;66.20
4279;DHT22;2153;47.744;10.580;2023-07-22T10:57:50;24.20;65.30
4279;DHT22;2153;47.744;10.580;2023-07-22T11:00:18;24.40;95.80
4279;DHT22;2153;47.744;10.580;2023-07-22T11:02:47;24.20;99.90
4279;DHT22;2153;47.744;10.580;2023-07-22T11:05:47;24.30;92.00
4279;DHT22;2153;47.744;10.580;2023-07-22T11:08:14;24.90;94.80
4279;DHT22;2153;47.744;10.580;2023-07-22T11:10:52;24.80;96.20
4279;DHT22;2153;47.744;10.580;2023-07-22T11:13:28;24.70;99.90
4279;DHT22;2153;47.744;10.580;2023-07-22T11:15:58;24.30;92.80
4279;DHT22;2153;47.744;10.580;2023-07-22T11:18:36;23.80;99.30
4279;DHT22;2153;47.744;10.580;2023-07-22T11:21:07;23.60;99.90
4279;DHT22;2153;47.744;10.580;2023-07-22T11:23:34;24.00;99.90
4279;DHT22;2153;47.744;10.580;2023-07-22T11:26:02;24.10;83.70
4279;DHT22;2153;47.744;10.580;2023-07-22T11:28:30;24.10;98.70
4279;DHT22;2153;47.744;10.580;2023-07-22T11:30:57;24.40;98.10
4279;DHT22;2153;47.744;10.580;2023-07-22T11:33:24;24.00;91.80
4279;DHT22;2153;47.744;10.580;2023-07-22T11:35:51;23.90;92.40
4279;DHT22;2153;47.744;10.580;2023-07-22T11:38:18;24.20;96.50
4279;DHT22;2153;47.744;10.580;2023-07-22T11:40:46;24.70;83.50
4279;DHT22;2153;47.744;10.580;2023-07-22T11:43:12;24.90;73.60
4279;DHT22;2153;47.744;10.580;2023-07-22T11:45:41;24.50;67.10
4279;DHT22;2153;47.744;10.580;2023-07-22T11:48:11;24.40;50.30
4279;DHT22;2153;47.744;10.580;2023-07-22T11:50:38;24.20;94.00
4279;DHT22;2153;47.744;10.580;2023-07-22T11:53:05;24.70;93.20
4279;DHT22;2153;47.744;10.580;2023-07-22T11:55:34;25.10;67.70
4279;DHT22;2153;47.744;10.580;2023-07-22T11:58:01;25.60;68.10
4279;DHT22;2153;47.744;10.580;2023-07-22T12:00:28;25.70;67.40
4279;DHT22;2153;47.744;10.580;2023-07-22T12:02:57;25.30;65.70
4279;DHT22;2153;47.744;10.580;2023-07-22T12:05:24;24.80;53.30
4279;DHT22;2153;47.744;10.580;2023-07-22T12:07:51;24.40;75.50
4279;DHT22;2153;47.744;10.580;2023-07-22T12:10:17;24.90;66.20
4279;DHT22;2153;47.744;10.580;2023-07-22T12:12:45;25.30;68.30
4279;DHT22;2153;47.744;10.580;2023-07-22T12:15:15;25.40;33.50
4279;DHT22;2153;47.744;10.580;2023-07-22T12:17:46;25.30;42.90
4279;DHT22;2153;47.744;10.580;2023-07-22T12:20:15;25.40;58.00
4279;DHT22;2153;47.744;10.580;2023-07-22T12:22:42;25.50;58.00
4279;DHT22;2153;47.744;10.580;2023-07-22T12:25:09;25.30;46.20
4279;DHT22;2153;47.744;10.580;2023-07-22T12:27:36;25.30;80.10
4279;DHT22;2153;47.744;10.580;2023-07-22T12:30:04;25.10;45.90
4279;DHT22;2153;47.744;10.580;2023-07-22T12:32:32;24.90;81.50
4279;DHT22;2153;47.744;10.580;2023-07-22T12:34:59;24.80;49.40
4279;DHT22;2153;47.744;10.580;2023-07-22T12:37:27;25.00;55.80
4279;DHT22;2153;47.744;10.580;2023-07-22T12:39:54;24.60;70.00
4279;DHT22;2153;47.744;10.580;2023-07-22T12:42:21;24.10;88.30
4279;DHT22;2153;47.744;10.580;2023-07-22T12:44:48;23.90;93.10
4279;DHT22;2153;47.744;10.580;2023-07-22T12:47:14;24.70;91.60
4279;DHT22;2153;47.744;10.580;2023-07-22T12:49:41;24.80;58.60
4279;DHT22;2153;47.744;10.580;2023-07-22T12:52:08;24.60;67.10
4279;DHT22;2153;47.744;10.580;2023-07-22T12:54:36;24.40;69.40
4279;DHT22;2153;47.744;10.580;2023-07-22T12:57:03;24.60;83.90
4279;DHT22;2153;47.744;10.580;2023-07-22T12:59:30;24.70;63.00
4279;DHT22;2153;47.744;10.580;2023-07-22T13:01:58;25.00;92.80
4279;DHT22;2153;47.744;10.580;2023-07-22T13:04:24;25.50;71.70
4279;DHT22;2153;47.744;10.580;2023-07-22T13:06:51;25.60;56.20
4279;DHT22;2153;47.744;10.580;2023-07-22T13:09:18;25.70;42.30
4279;DHT22;2153;47.744;10.580;2023-07-22T13:11:46;25.90;51.30
4279;DHT22;2153;47.744;10.580;2023-07-22T13:14:13;25.60;46.50
4279;DHT22;2153;47.744;10.580;2023-07-22T13:16:40;25.40;45.70
4279;DHT22;2153;47.744;10.580;2023-07-22T13:19:07;25.70;51.40
4279;DHT22;2153;47.744;10.580;2023-07-22T13:21:34;26.00;57.30
4279;DHT22;2153;47.744;10.580;2023-07-22T13:24:01;25.80;30.10
4279;DHT22;2153;47.744;10.580;2023-07-22T13:26:27;25.00;27.50
4279;DHT22;2153;47.744;10.580;2023-07-22T13:28:56;24.80;61.20
4279;DHT22;2153;47.744;10.580;2023-07-22T13:31:22;24.40;58.90
4279;DHT22;2153;47.744;10.580;2023-07-22T13:33:49;24.30;72.30
4279;DHT22;2153;47.744;10.580;2023-07-22T13:36:15;24.50;65.10
4279;DHT22;2153;47.744;10.580;2023-07-22T13:38:42;24.90;89.20
4279;DHT22;2153;47.744;10.580;2023-07-22T13:41:09;25.00;66.20
4279;DHT22;2153;47.744;10.580;2023-07-22T13:43:35;25.40;56.30
4279;DHT22;2153;47.744;10.580;2023-07-22T13:46:03;25.50;36.30
4279;DHT22;2153;47.744;10.580;2023-07-22T13:48:30;25.50;52.20
4279;DHT22;2153;47.744;10.580;2023-07-22T13:50:57;24.90;34.40
4279;DHT22;2153;47.744;10.580;2023-07-22T13:53:24;24.20;46.30
4279;DHT22;2153;47.744;10.580;2023-07-22T13:55:50;24.20;62.90
4279;DHT22;2153;47.744;10.580;2023-07-22T13:58:17;24.60;77.60
4279;DHT22;2153;47.744;10.580;2023-07-22T14:00:44;24.40;40.20
4279;DHT22;2153;47.744;10.580;2023-07-22T14:03:11;24.30;63.80
4279;DHT22;2153;47.744;10.580;2023-07-22T14:05:38;24.70;82.10
4279;DHT22;2153;47.744;10.580;2023-07-22T14:08:05;24.90;70.50
4279;DHT22;2153;47.744;10.580;2023-07-22T14:10:31;24.80;70.40
4279;DHT22;2153;47.744;10.580;2023-07-22T14:12:58;25.10;70.80
4279;DHT22;2153;47.744;10.580;2023-07-22T14:15:25;25.00;79.70
4279;DHT22;2153;47.744;10.580;2023-07-22T14:17:51;25.10;38.70
4279;DHT22;2153;47.744;10.580;2023-07-22T14:20:20;25.10;50.10
4279;DHT22;2153;47.744;10.580;2023-07-22T14:22:46;25.10;46.30
4279;DHT22;2153;47.744;10.580;2023-07-22T14:25:15;25.30;52.40
4279;DHT22;2153;47.744;10.580;2023-07-22T14:27:42;25.40;31.90
4279;DHT22;2153;47.744;10.580;2023-07-22T14:30:09;25.40;46.40
4279;DHT22;2153;47.744;10.580;2023-07-22T14:32:35;25.40;43.20
4279;DHT22;2153;47.744;10.580;2023-07-22T14:35:03;24.80;27.60
4279;DHT22;2153;47.744;10.580;2023-07-22T14:37:31;24.70;44.70
4279;DHT22;2153;47.744;10.580;2023-07-22T14:39:58;24.70;63.90
4279;DHT22;2153;47.744;10.580;2023-07-22T14:42:24;24.90;50.60
4279;DHT22;2153;47.744;10.580;2023-07-22T14:44:52;25.10;54.30
4279;DHT22;2153;47.744;10.580;2023-07-22T14:47:18;24.80;52.60
4279;DHT22;2153;47.744;10.580;2023-07-22T14:49:45;24.50;75.60
4279;DHT22;2153;47.744;10.580;2023-07-22T14:52:12;24.80;70.80
4279;DHT22;2153;47.744;10.580;2023-07-22T14:54:40;24.90;58.90
4279;DHT22;2153;47.744;10.580;2023-07-22T14:57:06;25.10;76.50
4279;DHT22;2153;47.744;10.580;2023-07-22T14:59:33;25.20;47.30
4279;DHT22;2153;47.744;10.580;2023-07-22T15:02:00;25.10;54.80
4279;DHT22;2153;47.744;10.580;2023-07-22T15:04:26;24.90;52.20
4279;DHT22;2153;47.744;10.580;2023-07-22T15:06:53;24.80;69.90
4279;DHT22;2153;47.744;10.580;2023-07-22T15:09:20;24.90;59.10
4279;DHT22;2153;47.744;10.580;2023-07-22T15:11:48;25.00;75.90
4279;DHT22;2153;47.744;10.580;2023-07-22T15:14:15;25.20;75.90
4279;DHT22;2153;47.744;10.580;2023-07-22T15:16:41;25.20;48.50
4279;DHT22;2153;47.744;10.580;2023-07-22T15:19:09;25.10;61.00
4279;DHT22;2153;47.744;10.580;2023-07-22T15:21:36;24.90;57.50
4279;DHT22;2153;47.744;10.580;2023-07-22T15:24:04;24.90;80.00
4279;DHT22;2153;47.744;10.580;2023-07-22T15:26:31;24.90;59.30
4279;DHT22;2153;47.744;10.580;2023-07-22T15:28:59;24.30;75.00
4279;DHT22;2153;47.744;10.580;2023-07-22T15:31:26;24.00;83.50
4279;DHT22;2153;47.744;10.580;2023-07-22T15:33:52;23.60;91.40
4279;DHT22;2153;47.744;10.580;2023-07-22T15:36:19;23.30;91.60
4279;DHT22;2153;47.744;10.580;2023-07-22T15:38:46;23.10;99.90
4279;DHT22;2153;47.744;10.580;2023-07-22T15:41:12;23.40;99.90
4279;DHT22;2153;47.744;10.580;2023-07-22T15:43:39;23.80;97.00
4279;DHT22;2153;47.744;10.580;2023-07-22T15:46:08;24.00;99.60
4279;DHT22;2153;47.744;10.580;2023-07-22T15:48:34;24.20;89.40